createdAt,value
2019-04-11T00:00:13.230Z,95306.21
2019-04-11T00:03:00.800Z,95304.73
2019-04-11T00:05:48.326Z,95311.19
2019-04-11T00:08:37.164Z,95308.11
2019-04-11T00:11:26.014Z,95311.95
2019-04-11T00:14:13.941Z,95314.59
2019-04-11T00:17:01.673Z,95314.36
2019-04-11T00:19:48.981Z,95306.31
2019-04-11T00:22:37.414Z,95317.80
2019-04-11T00:25:25.335Z,95314.27
2019-04-11T00:28:13.188Z,95307.46
2019-04-11T00:31:00.840Z,95302.77
2019-04-11T00:33:48.760Z,95305.41
2019-04-11T00:36:36.863Z,95298.45
2019-04-11T00:39:24.211Z,95298.73
2019-04-11T00:42:12.506Z,95299.27
2019-04-11T00:45:00.465Z,95299.03
2019-04-11T00:47:48.997Z,95297.03
2019-04-11T00:50:37.246Z,95305.92
2019-04-11T00:53:25.686Z,95308.86
2019-04-11T00:56:13.748Z,95310.75
2019-04-11T00:59:02.392Z,95299.95
2019-04-11T01:01:51.424Z,95309.84
2019-04-11T01:04:39.712Z,95302.69
2019-04-11T01:07:27.035Z,95306.16
2019-04-11T01:10:16.119Z,95298.53
2019-04-11T01:13:05.081Z,95305.92
2019-04-11T01:15:58.143Z,95301.94
2019-04-11T01:18:45.216Z,95302.31
2019-04-11T01:21:33.007Z,95298.94
2019-04-11T01:24:21.792Z,95304.88
2019-04-11T01:27:10.056Z,95314.84
2019-04-11T01:29:57.830Z,95316.35
2019-04-11T01:32:46.501Z,95308.45
2019-04-11T01:35:34.345Z,95317.81
2019-04-11T01:38:23.740Z,95322.97
2019-04-11T01:41:12.126Z,95325.03
2019-04-11T01:44:03.696Z,95322.27
2019-04-11T01:46:48.911Z,95313.48
2019-04-11T01:49:37.238Z,95320.70
2019-04-11T01:52:24.558Z,95321.08
2019-04-11T01:55:12.321Z,95321.08
2019-04-11T01:58:00.414Z,95331.95
2019-04-11T02:01:14.508Z,95331.20
2019-04-11T02:04:27.967Z,95327.73
2019-04-11T02:07:15.565Z,95318.54
2019-04-11T02:10:04.300Z,95325.33
2019-04-11T02:12:53.212Z,95327.09
2019-04-11T02:15:40.987Z,95333.03
2019-04-11T02:18:29.714Z,95332.31
2019-04-11T02:21:17.833Z,95329.37
2019-04-11T02:24:30.360Z,95340.28
2019-04-11T02:27:26.063Z,95339.36
2019-04-11T02:30:16.755Z,95341.32
2019-04-11T02:33:04.797Z,95347.90
2019-04-11T02:35:54.046Z,95347.59
2019-04-11T02:38:41.901Z,95356.62
2019-04-11T02:41:29.966Z,95356.57
2019-04-11T02:44:52.401Z,95362.20
2019-04-11T02:47:13.595Z,95360.03
2019-04-11T02:49:59.143Z,95367.30
2019-04-11T02:52:47.345Z,95368.27
2019-04-11T02:55:35.767Z,95370.78
2019-04-11T02:58:25.209Z,95370.11
2019-04-11T03:01:12.980Z,95363.20
2019-04-11T03:04:01.892Z,95366.37
2019-04-11T03:06:51.846Z,95369.73
2019-04-11T03:09:39.548Z,95365.69
2019-04-11T03:12:27.783Z,95367.11
2019-04-11T03:15:33.914Z,95366.73
2019-04-11T03:18:09.530Z,95372.30
2019-04-11T03:20:59.792Z,95372.25
2019-04-11T03:23:46.758Z,95376.11
2019-04-11T03:26:35.500Z,95366.19
2019-04-11T03:29:24.435Z,95365.69
2019-04-11T03:33:15.117Z,95368.95
2019-04-11T03:38:15.266Z,95370.70
2019-04-11T03:41:00.354Z,95372.55
2019-04-11T03:43:45.154Z,95367.86
2019-04-11T03:46:38.485Z,95375.39
2019-04-11T03:49:22.610Z,95372.88
2019-04-11T03:52:01.079Z,95372.70
2019-04-11T03:54:49.621Z,95374.91
2019-04-11T03:57:37.494Z,95376.33
2019-04-11T04:00:31.420Z,95382.59
2019-04-11T04:03:14.328Z,95378.58
2019-04-11T04:06:04.241Z,95385.47
2019-04-11T04:08:53.202Z,95381.19
2019-04-11T04:11:44.977Z,95383.11
2019-04-11T04:14:39.166Z,95386.83
2019-04-11T04:17:41.181Z,95382.48
2019-04-11T04:20:57.668Z,95388.75
2019-04-11T04:23:49.640Z,95390.72
2019-04-11T04:26:39.108Z,95393.51
2019-04-11T04:29:29.176Z,95397.73
2019-04-11T04:32:18.258Z,95405.80
2019-04-11T04:35:10.451Z,95404.06
2019-04-11T04:37:56.950Z,95393.09
2019-04-11T04:41:00.668Z,95405.63
2019-04-11T04:43:38.726Z,95402.47
2019-04-11T04:46:43.048Z,95415.39
2019-04-11T04:49:15.769Z,95409.76
2019-04-11T04:52:04.002Z,95412.87
2019-04-11T04:54:54.705Z,95414.05
2019-04-11T04:57:42.969Z,95421.89
2019-04-11T05:00:31.986Z,95422.31
2019-04-11T05:03:22.021Z,95423.40
2019-04-11T05:06:10.141Z,95427.30
2019-04-11T05:08:58.190Z,95427.14
2019-04-11T05:11:46.680Z,95430.49
2019-04-11T05:14:35.106Z,95428.19
2019-04-11T05:17:23.303Z,95429.53
2019-04-11T05:20:11.985Z,95430.23
2019-04-11T05:23:00.111Z,95428.19
2019-04-11T05:25:47.731Z,95434.38
2019-04-11T05:28:35.817Z,95435.63
2019-04-11T05:31:24.710Z,95438.80
2019-04-11T05:34:12.418Z,95446.27
2019-04-11T05:37:00.321Z,95445.31
2019-04-11T05:39:48.235Z,95452.14
2019-04-11T05:42:36.147Z,95438.32
2019-04-11T05:45:25.933Z,95436.02
2019-04-11T05:48:25.945Z,95440.48
2019-04-11T05:51:18.576Z,95442.62
2019-04-11T05:54:07.379Z,95442.77
2019-04-11T05:56:59.597Z,95443.36
2019-04-11T05:59:51.976Z,95444.45
2019-04-11T06:02:41.477Z,95440.40
2019-04-11T06:05:37.918Z,95452.91
2019-04-11T06:08:28.546Z,95453.67
2019-04-11T06:11:23.673Z,95460.03
2019-04-11T06:14:15.531Z,95468.14
2019-04-11T06:17:07.290Z,95469.25
2019-04-11T06:20:25.189Z,95461.66
2019-04-11T06:23:37.253Z,95462.62
2019-04-11T06:26:42.943Z,95474.84
2019-04-11T06:29:36.944Z,95464.45
2019-04-11T06:32:36.046Z,95475.84
2019-04-11T06:35:50.360Z,95470.62
2019-04-11T06:38:51.196Z,95467.78
2019-04-11T06:41:48.844Z,95475.78
2019-04-11T06:44:46.023Z,95482.44
2019-04-11T06:47:54.121Z,95479.91
2019-04-11T06:50:49.360Z,95477.38
2019-04-11T06:53:50.495Z,95483.00
2019-04-11T06:56:41.562Z,95486.27
2019-04-11T06:59:34.381Z,95488.49
2019-04-11T07:02:24.499Z,95491.66
2019-04-11T07:05:12.307Z,95491.27
2019-04-11T07:08:00.021Z,95488.17
2019-04-11T07:10:53.116Z,95492.91
2019-04-11T07:13:47.771Z,95496.42
2019-04-11T07:16:36.227Z,95492.28
2019-04-11T07:19:42.057Z,95490.84
2019-04-11T07:22:47.308Z,95491.08
2019-04-11T07:25:53.993Z,95492.19
2019-04-11T07:29:04.503Z,95495.61
2019-04-11T07:32:20.678Z,95496.57
2019-04-11T07:35:42.632Z,95508.56
2019-04-11T07:38:38.820Z,95502.56
2019-04-11T07:41:45.525Z,95498.75
2019-04-11T07:44:34.339Z,95506.25
2019-04-11T07:47:32.317Z,95503.78
2019-04-11T07:50:21.255Z,95504.84
2019-04-11T07:53:09.040Z,95505.97
2019-04-11T07:55:57.819Z,95512.70
2019-04-11T07:58:50.620Z,95521.23
2019-04-11T08:01:57.491Z,95513.96
2019-04-11T08:05:16.152Z,95523.06
2019-04-11T08:08:26.192Z,95526.50
2019-04-11T08:11:25.561Z,95533.87
2019-04-11T08:14:38.224Z,95537.23
2019-04-11T08:17:36.870Z,95542.05
2019-04-11T08:20:36.058Z,95545.77
2019-04-11T08:23:24.444Z,95538.17
2019-04-11T08:26:44.368Z,95537.30
2019-04-11T08:29:31.704Z,95531.73
2019-04-11T08:32:44.283Z,95537.55
2019-04-11T08:35:55.607Z,95535.42
2019-04-11T08:38:44.612Z,95538.49
2019-04-11T08:41:51.643Z,95546.09
2019-04-11T08:44:41.879Z,95537.58
2019-04-11T08:47:46.388Z,95548.27
2019-04-11T08:50:30.354Z,95539.00
2019-04-11T08:53:53.163Z,95540.84
2019-04-11T08:56:41.752Z,95539.25
2019-04-11T08:59:51.548Z,95540.44
2019-04-11T09:02:45.524Z,95540.50
2019-04-11T09:06:02.396Z,95543.52
2019-04-11T09:09:16.331Z,95544.78
2019-04-11T09:12:06.549Z,95557.14
2019-04-11T09:15:28.825Z,95547.14
2019-04-11T09:18:17.742Z,95560.06
2019-04-11T09:21:40.405Z,95555.94
2019-04-11T09:24:52.694Z,95560.88
2019-04-11T09:27:55.555Z,95551.06
2019-04-11T09:31:01.137Z,95552.88
2019-04-11T09:34:11.278Z,95562.09
2019-04-11T09:37:22.851Z,95558.44
2019-04-11T09:40:29.976Z,95556.84
2019-04-11T09:43:19.910Z,95556.80
2019-04-11T09:46:24.670Z,95567.02
2019-04-11T09:49:36.096Z,95561.34
2019-04-11T09:52:29.031Z,95556.30
2019-04-11T09:55:33.214Z,95559.27
2019-04-11T09:58:25.470Z,95563.45
2019-04-11T10:01:45.187Z,95567.15
2019-04-11T10:04:33.845Z,95561.06
2019-04-11T10:07:39.064Z,95564.50
2019-04-11T10:10:46.580Z,95558.53
2019-04-11T10:13:49.076Z,95561.22
2019-04-11T10:16:55.990Z,95559.11
2019-04-11T10:19:48.839Z,95559.33
2019-04-11T10:22:49.138Z,95557.73
2019-04-11T10:25:40.206Z,95564.56
2019-04-11T10:28:46.582Z,95557.47
2019-04-11T10:31:36.747Z,95562.85
2019-04-11T10:34:41.864Z,95568.64
2019-04-11T10:37:29.582Z,95576.36
2019-04-11T10:40:48.457Z,95572.03
2019-04-11T10:43:36.280Z,95573.39
2019-04-11T10:46:43.920Z,95573.07
2019-04-11T10:49:50.468Z,95582.00
2019-04-11T10:52:40.476Z,95575.55
2019-04-11T10:55:46.178Z,95578.86
2019-04-11T10:58:40.735Z,95578.81
2019-04-11T11:01:48.407Z,95586.86
2019-04-11T11:04:43.067Z,95574.54
2019-04-11T11:07:32.904Z,95588.71
2019-04-11T11:10:24.297Z,95589.76
2019-04-11T11:13:39.081Z,95592.35
2019-04-11T11:16:32.571Z,95592.52
2019-04-11T11:19:50.220Z,95596.04
2019-04-11T11:23:06.911Z,95591.16
2019-04-11T11:26:10.996Z,95597.01
2019-04-11T11:29:15.162Z,95599.28
2019-04-11T11:32:07.054Z,95593.69
2019-04-11T11:35:29.565Z,95600.09
2019-04-11T11:38:19.915Z,95597.19
2019-04-11T11:41:26.420Z,95600.21
2019-04-11T11:44:13.893Z,95607.64
2019-04-11T11:47:19.571Z,95607.59
2019-04-11T11:50:15.548Z,95611.44
2019-04-11T11:53:18.489Z,95605.30
2019-04-11T11:56:07.468Z,95608.88
2019-04-11T11:59:07.688Z,95614.80
2019-04-11T12:01:58.207Z,95604.20
2019-04-11T12:04:57.006Z,95617.80
2019-04-11T12:08:10.810Z,95615.02
2019-04-11T12:11:06.055Z,95603.98
2019-04-11T12:14:12.735Z,95615.24
2019-04-11T12:17:22.719Z,95611.33
2019-04-11T12:20:29.510Z,95615.17
2019-04-11T12:23:25.999Z,95615.31
2019-04-11T12:26:15.190Z,95618.83
2019-04-11T12:29:21.793Z,95612.75
2019-04-11T12:32:13.231Z,95629.27
2019-04-11T12:35:08.212Z,95616.35
2019-04-11T12:38:00.425Z,95620.77
2019-04-11T12:41:05.551Z,95614.05
2019-04-11T12:44:10.824Z,95627.35
2019-04-11T12:47:16.311Z,95624.31
2019-04-11T12:50:29.622Z,95624.77
2019-04-11T12:53:18.814Z,95626.77
2019-04-11T12:56:23.444Z,95612.81
2019-04-11T12:59:17.950Z,95626.26
2019-04-11T13:02:42.971Z,95625.48
2019-04-11T13:05:31.424Z,95619.77
2019-04-11T13:08:36.558Z,95624.20
2019-04-11T13:11:24.022Z,95624.75
2019-04-11T13:14:25.549Z,95625.69
2019-04-11T13:17:16.739Z,95620.89
2019-04-11T13:20:22.593Z,95621.82
2019-04-11T13:23:20.243Z,95613.98
2019-04-11T13:26:25.944Z,95621.16
2019-04-11T13:29:24.617Z,95620.14
2019-04-11T13:32:30.152Z,95624.77
2019-04-11T13:35:23.920Z,95619.06
2019-04-11T13:38:14.743Z,95626.48
2019-04-11T13:41:27.946Z,95620.77
2019-04-11T13:44:33.372Z,95615.79
2019-04-11T13:47:39.188Z,95623.64
2019-04-11T13:50:26.925Z,95616.34
2019-04-11T13:53:31.959Z,95618.81
2019-04-11T13:56:20.788Z,95616.59
2019-04-11T13:59:26.231Z,95617.72
2019-04-11T14:02:21.784Z,95611.56
2019-04-11T14:05:10.864Z,95617.07
2019-04-11T14:07:58.350Z,95624.31
2019-04-11T14:11:01.871Z,95621.15
2019-04-11T14:13:50.119Z,95618.67
2019-04-11T14:16:41.613Z,95620.48
2019-04-11T14:19:58.862Z,95615.50
2019-04-11T14:23:08.291Z,95622.71
2019-04-11T14:26:13.741Z,95613.39
2019-04-11T14:29:32.816Z,95616.13
2019-04-11T14:32:28.588Z,95619.97
2019-04-11T14:35:40.959Z,95620.00
2019-04-11T14:38:31.998Z,95619.30
2019-04-11T14:41:31.505Z,95623.63
2019-04-11T14:44:19.372Z,95629.49
2019-04-11T14:47:41.537Z,95629.20
2019-04-11T14:50:40.993Z,95628.03
2019-04-11T14:53:33.178Z,95629.23
2019-04-11T14:56:22.186Z,95632.41
2019-04-11T14:59:24.815Z,95633.80
2019-04-11T15:02:16.750Z,95635.09
2019-04-11T15:05:23.840Z,95643.77
2019-04-11T15:08:14.900Z,95639.95
2019-04-11T15:11:19.726Z,95647.84
2019-04-11T15:14:17.724Z,95644.24
2019-04-11T15:17:24.290Z,95644.72
2019-04-11T15:20:33.822Z,95646.88
2019-04-11T15:23:28.373Z,95644.26
2019-04-11T15:26:48.137Z,95651.40
2019-04-11T15:29:38.034Z,95649.90
2019-04-11T15:32:47.507Z,95653.17
2019-04-11T15:35:35.250Z,95655.17
2019-04-11T15:38:57.347Z,95658.53
2019-04-11T15:41:45.007Z,95653.34
2019-04-11T15:44:50.715Z,95651.08
2019-04-11T15:47:42.191Z,95653.73
2019-04-11T15:50:47.496Z,95648.08
2019-04-11T15:53:48.296Z,95655.67
2019-04-11T15:56:49.019Z,95657.24
2019-04-11T15:59:55.602Z,95650.00
2019-04-11T16:02:49.256Z,95650.70
2019-04-11T16:06:01.695Z,95657.17
2019-04-11T16:08:56.995Z,95645.05
2019-04-11T16:11:55.835Z,95648.75
2019-04-11T16:14:43.117Z,95657.48
2019-04-11T16:17:57.932Z,95662.49
2019-04-11T16:20:45.746Z,95665.47
2019-04-11T16:23:41.919Z,95666.75
2019-04-11T16:26:39.091Z,95668.61
2019-04-11T16:29:42.610Z,95673.14
2019-04-11T16:32:31.118Z,95677.52
2019-04-11T16:35:33.429Z,95675.36
2019-04-11T16:38:22.255Z,95669.50
2019-04-11T16:41:34.775Z,95675.36
2019-04-11T16:44:40.409Z,95674.30
2019-04-11T16:47:42.572Z,95679.56
2019-04-11T16:50:30.469Z,95673.25
2019-04-11T16:53:17.831Z,95679.97
2019-04-11T16:56:05.339Z,95682.60
2019-04-11T16:58:53.054Z,95679.22
2019-04-11T17:01:40.188Z,95690.66
2019-04-11T17:04:28.239Z,95686.31
2019-04-11T17:07:33.882Z,95687.95
2019-04-11T17:10:40.613Z,95691.33
2019-04-11T17:13:28.688Z,95701.22
2019-04-11T17:16:17.908Z,95702.36
2019-04-11T17:19:06.137Z,95702.80
2019-04-11T17:21:54.057Z,95696.58
2019-04-11T17:24:41.683Z,95693.39
2019-04-11T17:27:29.259Z,95690.42
2019-04-11T17:30:17.099Z,95698.13
2019-04-11T17:33:04.378Z,95707.75
2019-04-11T17:35:51.949Z,95707.84
2019-04-11T17:38:39.735Z,95701.25
2019-04-11T17:41:27.650Z,95706.19
2019-04-11T17:44:15.322Z,95708.77
2019-04-11T17:47:02.850Z,95707.98
2019-04-11T17:49:50.355Z,95706.86
2019-04-11T17:52:37.993Z,95705.55
2019-04-11T17:55:25.649Z,95707.91
2019-04-11T17:58:13.369Z,95718.05
2019-04-11T18:01:05.197Z,95720.02
2019-04-11T18:03:51.878Z,95726.91
2019-04-11T18:06:39.660Z,95730.77
2019-04-11T18:09:27.533Z,95734.16
2019-04-11T18:12:15.314Z,95738.33
2019-04-11T18:15:03.114Z,95751.23
2019-04-11T18:17:51.165Z,95747.17
2019-04-11T18:20:38.841Z,95748.68
2019-04-11T18:23:26.770Z,95754.13
2019-04-11T18:26:14.568Z,95762.06
2019-04-11T18:29:02.309Z,95762.87
2019-04-11T18:31:51.249Z,95759.36
2019-04-11T18:34:39.022Z,95763.03
2019-04-11T18:37:27.097Z,95764.53
2019-04-11T18:40:15.656Z,95767.14
2019-04-11T18:43:03.216Z,95766.22
2019-04-11T18:45:51.260Z,95765.64
2019-04-11T18:48:38.934Z,95766.13
2019-04-11T18:51:26.743Z,95770.27
2019-04-11T18:54:15.414Z,95768.14
2019-04-11T18:57:02.678Z,95772.77
2019-04-11T18:59:50.066Z,95770.21
2019-04-11T19:02:40.219Z,95768.23
2019-04-11T19:05:28.847Z,95776.73
2019-04-11T19:08:17.519Z,95774.33
2019-04-11T19:11:06.110Z,95777.22
2019-04-11T19:13:54.047Z,95779.34
2019-04-11T19:16:43.733Z,95777.13
2019-04-11T19:19:31.604Z,95777.52
2019-04-11T19:22:20.831Z,95779.27
2019-04-11T19:25:11.779Z,95777.69
2019-04-11T19:27:58.271Z,95782.47
2019-04-11T19:38:27.211Z,95784.84
2019-04-11T19:41:16.971Z,95783.81
2019-04-11T19:44:03.800Z,95783.88
2019-04-11T19:46:51.711Z,95781.98
2019-04-11T19:49:39.733Z,95784.52
2019-04-11T19:52:27.247Z,95784.75
2019-04-11T19:58:42.538Z,95784.98
2019-04-11T20:01:30.542Z,95780.08
2019-04-11T20:04:18.366Z,95779.91
2019-04-11T20:10:53.238Z,95779.42
2019-04-11T20:13:40.756Z,95774.38
2019-04-11T20:16:28.642Z,95775.27
2019-04-11T20:19:16.408Z,95778.31
2019-04-11T20:22:08.259Z,95775.43
2019-04-11T20:24:53.906Z,95771.67
2019-04-11T20:27:41.318Z,95780.53
2019-04-11T20:30:29.163Z,95781.84
2019-04-11T20:33:26.539Z,95777.63
2019-04-11T20:36:08.198Z,95775.89
2019-04-11T20:38:55.733Z,95784.01
2019-04-11T20:41:43.279Z,95784.41
2019-04-11T20:44:31.189Z,95788.11
2019-04-11T20:47:19.507Z,95785.23
2019-04-11T20:50:07.988Z,95786.67
2019-04-11T20:52:55.357Z,95788.59
2019-04-11T20:55:42.769Z,95783.64
2019-04-11T20:58:30.893Z,95787.69
2019-04-11T21:01:18.734Z,95784.58
2019-04-11T21:04:06.280Z,95781.94
2019-04-11T21:06:53.992Z,95790.15
2019-04-11T21:09:42.022Z,95786.96
2019-04-11T21:12:29.872Z,95781.59
2019-04-11T21:15:17.299Z,95780.94
2019-04-11T21:18:04.849Z,95782.37
2019-04-11T21:20:55.035Z,95781.59
2019-04-11T21:23:41.842Z,95775.26
2019-04-11T21:26:30.022Z,95772.64
2019-04-11T21:29:17.729Z,95774.27
2019-04-11T21:32:05.657Z,95769.93
2019-04-11T21:34:55.160Z,95772.58
2019-04-11T21:37:43.034Z,95770.86
2019-04-11T21:40:30.492Z,95777.56
2019-04-11T21:43:18.276Z,95771.89
2019-04-11T21:46:06.993Z,95773.36
2019-04-11T21:48:58.040Z,95779.14
2019-04-11T21:51:45.392Z,95776.56
2019-04-11T21:54:32.629Z,95770.56
2019-04-11T21:57:20.402Z,95768.84
2019-04-11T22:00:14.077Z,95765.72
2019-04-11T22:03:01.507Z,95768.55
2019-04-11T22:05:49.043Z,95764.18
2019-04-11T22:08:36.569Z,95765.78
2019-04-11T22:11:24.214Z,95770.06
2019-04-11T22:14:12.092Z,95764.91
2019-04-11T22:16:59.535Z,95771.98
2019-04-11T22:19:47.688Z,95775.46
2019-04-11T22:22:35.400Z,95768.95
2019-04-11T22:25:22.851Z,95769.21
2019-04-11T22:28:10.370Z,95762.94
2019-04-11T22:30:58.469Z,95762.55
2019-04-11T22:33:51.613Z,95760.46
2019-04-11T22:36:39.000Z,95760.98
2019-04-11T22:39:26.477Z,95766.94
2019-04-11T22:42:14.230Z,95757.02
2019-04-11T22:45:01.891Z,95754.32
2019-04-11T22:47:49.132Z,95756.23
2019-04-11T22:50:40.279Z,95750.30
2019-04-11T22:53:25.697Z,95756.36
2019-04-11T22:56:13.434Z,95756.53
2019-04-11T22:59:00.897Z,95755.94
2019-04-11T23:01:49.222Z,95753.91
2019-04-11T23:04:36.329Z,95750.72
2019-04-11T23:07:23.759Z,95753.78
2019-04-11T23:10:11.721Z,95756.91
2019-04-11T23:12:59.143Z,95755.25
2019-04-11T23:15:46.641Z,95758.36
2019-04-11T23:18:34.216Z,95755.13
2019-04-11T23:21:21.706Z,95746.59
2019-04-11T23:24:12.100Z,95749.94
2019-04-11T23:26:58.647Z,95752.98
2019-04-11T23:29:47.173Z,95754.92
2019-04-11T23:32:35.919Z,95752.11
2019-04-11T23:35:23.373Z,95748.13
2019-04-11T23:38:10.871Z,95741.53
2019-04-11T23:40:58.881Z,95750.66
2019-04-11T23:43:49.739Z,95746.53
2019-04-11T23:46:35.319Z,95742.84
2019-04-11T23:49:24.837Z,95742.52
2019-04-11T23:52:12.403Z,95739.30
2019-04-11T23:55:00.482Z,95744.27
2019-04-11T23:57:48.964Z,95743.17
